CST,Max TemperatureF,Mean TemperatureF,Min TemperatureF,Max Dew PointF,MeanDew PointF,Min DewpointF,Max Humidity, Mean Humidity, Min Humidity, Max Sea Level PressureIn, Mean Sea Level PressureIn, Min Sea Level PressureIn, Max VisibilityMiles, Mean VisibilityMiles, Min VisibilityMiles, Max Wind SpeedMPH, Mean Wind SpeedMPH, Max Gust SpeedMPH,PrecipitationIn, CloudCover, Events, WindDirDegrees
2014-1-1,36,22,7,22,11,1,92,81,60,30.35,30.18,30.05,10,6,0,22,13,28,0.12,6,Fog-Snow,7
2014-1-2,15,7,-1,1,-3,-6,83,68,53,30.53,30.47,30.36,10,10,8,16,7,19,0.00,2,,338
2014-1-3,37,20,2,22,12,-5,79,66,52,30.48,30.10,29.76,10,10,10,31,18,40,0.00,1,,175
2014-1-4,40,28,15,27,19,12,92,73,54,30.12,29.94,29.74,10,7,1,25,14,33,0.13,7,Snow,347
2014-1-5,15,6,-4,11,-1,-22,88,61,34,30.57,30.26,30.05,10,6,0,30,19,36,0.05,7,Snow,354
2014-1-6,4,-3,-11,-11,-15,-21,65,56,47,30.61,30.55,30.45,10,10,10,22,11,28,0.00,1,,272
2014-1-7,34,15,-5,19,7,-12,74,63,51,30.43,30.23,30.11,10,10,10,21,9,25,0.00,2,,206
2014-1-8,25,21,17,16,13,11,84,72,60,30.41,30.34,30.23,10,10,10,16,10,19,0.00,7,,61
2014-1-9,30,23,16,29,18,11,100,87,74,30.37,30.21,30.04,10,7,1,12,7,15,0.01,8,Snow,129
2014-1-10,42,36,30,39,33,30,100,81,62,30.00,29.69,29.53,10,4,0,15,9,17,0.01,8,Fog-Rain,200
2014-1-11,46,38,29,33,29,24,92,75,57,29.93,29.81,29.65,10,9,5,20,10,26,T,3,,255
2014-1-12,61,46,30,32,29,25,85,59,32,29.84,29.63,29.49,10,10,10,33,16,41,0.00,4,,214
2014-1-13,47,38,29,32,27,21,82,61,40,29.89,29.81,29.66,10,10,10,21,10,25,0.00,2,,274
2014-1-14,44,34,23,30,19,10,64,47,29,30.23,30.03,29.75,10,10,10,26,13,40,0.00,3,,308
2014-1-15,37,26,14,26,11,-1,67,47,27,30.28,30.12,29.82,10,10,10,21,10,27,T,4,Rain,254
2014-1-16,47,33,18,26,18,8,70,52,33,30.08,29.88,29.76,10,10,3,33,18,45,T,5,Snow,294
2014-1-17,31,24,16,10,1,-8,67,43,19,30.20,30.12,30.01,10,10,9,25,14,35,T,3,Snow,289
2014-1-18,49,35,20,25,17,10,68,54,39,30.13,29.90,29.73,10,10,10,36,16,49,T,5,,291
2014-1-19,62,40,18,24,20,13,84,52,20,30.11,29.92,29.78,10,10,10,23,12,29,0.00,1,,235
2014-1-20,50,34,18,27,21,7,64,51,37,30.31,30.03,29.85,10,10,6,36,12,51,T,4,Snow,330
2014-1-21,21,12,2,3,-5,-9,69,50,30,30.51,30.36,30.14,10,10,10,28,10,36,T,4,,284
2014-1-22,37,21,5,16,5,-11,62,44,26,30.56,30.22,30.06,10,10,9,31,14,37,0.00,4,,308
2014-1-23,16,8,0,-6,-9,-11,62,48,33,30.88,30.76,30.59,10,10,10,23,11,29,0.00,2,,316
2014-1-24,45,24,3,17,3,-6,68,46,24,30.64,30.16,29.76,10,10,10,32,19,42,0.00,4,,221
2014-1-25,48,36,24,34,22,11,79,55,30,30.04,29.91,29.72,10,10,10,25,12,31,T,5,,300
2014-1-26,57,37,17,30,20,-4,64,43,22,30.23,29.77,29.63,10,10,10,46,18,56,T,4,,289
2014-1-27,17,11,4,-4,-11,-13,56,44,31,30.55,30.48,30.28,10,10,9,30,12,36,0.00,2,,343
2014-1-28,24,12,0,3,-4,-11,63,46,28,30.55,30.46,30.33,10,10,10,17,7,21,0.00,2,,225
2014-1-29,43,25,6,12,5,-3,69,45,20,30.32,30.12,29.86,10,10,10,28,16,36,0.00,0,,197
2014-1-30,46,37,27,22,13,8,58,43,28,30.02,29.80,29.64,10,10,8,33,19,41,T,7,Rain,248
2014-1-31,27,23,18,16,13,7,80,65,50,30.13,30.03,29.93,10,7,1,17,12,21,0.03,8,Snow,47